createdAt,value
2023-01-23T00:00:16.094Z,1.10
2023-01-23T00:02:43.869Z,1.10
2023-01-23T00:05:17.262Z,1.10
2023-01-23T00:07:44.634Z,1.10
2023-01-23T00:10:12.303Z,1.10
2023-01-23T00:12:45.259Z,1.10
2023-01-23T00:15:17.458Z,1.10
2023-01-23T00:17:54.440Z,1.10
2023-01-23T00:20:22.141Z,1.10
2023-01-23T00:22:52.715Z,1.10
2023-01-23T00:25:23.181Z,1.10
2023-01-23T00:27:52.909Z,1.10
2023-01-23T00:30:23.204Z,1.10
2023-01-23T00:32:50.871Z,1.10
2023-01-23T00:35:18.535Z,1.10
2023-01-23T00:37:48.087Z,1.20
2023-01-23T00:40:15.496Z,1.20
2023-01-23T00:42:43.055Z,1.20
2023-01-23T00:45:12.303Z,1.20
2023-01-23T00:47:39.663Z,1.20
2023-01-23T00:50:07.260Z,1.20
2023-01-23T00:52:34.637Z,1.20
2023-01-23T00:55:02.504Z,1.10
2023-01-23T00:57:32.971Z,1.10
2023-01-23T01:00:03.156Z,1.20
2023-01-23T01:02:30.703Z,1.10
2023-01-23T01:04:58.488Z,1.10
2023-01-23T01:07:29.030Z,1.10
2023-01-23T01:09:56.281Z,1.10
2023-01-23T01:12:23.726Z,1.10
2023-01-23T01:14:51.271Z,1.10
2023-01-23T01:17:18.749Z,1.20
2023-01-23T01:19:48.927Z,1.10
2023-01-23T01:22:24.113Z,1.10
2023-01-23T01:25:05.291Z,1.10
2023-01-23T01:27:35.890Z,1.10
2023-01-23T01:30:04.045Z,1.20
2023-01-23T01:32:36.953Z,1.10
2023-01-23T01:35:07.218Z,1.10
2023-01-23T01:37:35.696Z,1.20
2023-01-23T01:40:13.905Z,1.20
2023-01-23T01:42:45.895Z,1.20
2023-01-23T01:45:50.838Z,1.10
2023-01-23T01:48:18.128Z,1.20
2023-01-23T01:50:55.848Z,1.20
2023-01-23T01:53:29.264Z,1.10
2023-01-23T01:55:59.084Z,1.20
2023-01-23T01:58:31.343Z,1.20
2023-01-23T02:01:01.559Z,1.20
2023-01-23T02:03:29.657Z,1.20
2023-01-23T02:06:00.341Z,1.20
2023-01-23T02:08:35.727Z,1.20
2023-01-23T02:11:06.564Z,1.20
2023-01-23T02:13:38.799Z,1.20
2023-01-23T02:16:09.892Z,1.20
2023-01-23T02:18:42.869Z,1.20
2023-01-23T02:21:13.244Z,1.20
2023-01-23T02:24:13.114Z,1.20
2023-01-23T02:26:42.724Z,1.20
2023-01-23T02:29:10.291Z,1.20
2023-01-23T02:31:56.486Z,1.20
2023-01-23T02:34:26.152Z,1.20
2023-01-23T02:36:58.679Z,1.20
2023-01-23T02:39:29.313Z,1.20
2023-01-23T02:42:00.564Z,1.20
2023-01-23T02:44:54.025Z,1.20
2023-01-23T02:47:22.437Z,1.20
2023-01-23T02:49:50.076Z,1.20
2023-01-23T02:52:17.732Z,1.20
2023-01-23T02:54:45.410Z,1.20
2023-01-23T02:57:14.595Z,1.20
2023-01-23T03:00:03.259Z,1.20
2023-01-23T03:02:38.596Z,1.20
2023-01-23T03:05:07.083Z,1.20
2023-01-23T03:07:34.742Z,1.20
2023-01-23T03:10:04.637Z,1.20
2023-01-23T03:12:32.338Z,1.20
2023-01-23T03:14:59.884Z,1.20
2023-01-23T03:17:31.537Z,1.20
2023-01-23T03:19:59.583Z,1.20
2023-01-23T03:22:29.704Z,1.20
2023-01-23T03:25:01.119Z,1.20
2023-01-23T03:27:32.434Z,1.20
2023-01-23T03:30:23.814Z,1.20
2023-01-23T03:32:56.646Z,1.20
2023-01-23T03:35:23.699Z,1.20
2023-01-23T03:37:53.290Z,1.20
2023-01-23T03:40:41.047Z,1.20
2023-01-23T03:43:09.015Z,1.20
2023-01-23T03:45:41.597Z,1.20
2023-01-23T03:48:08.328Z,1.20
2023-01-23T03:50:35.825Z,1.20
2023-01-23T03:53:02.555Z,1.20
2023-01-23T03:55:29.283Z,1.20
2023-01-23T03:57:55.983Z,1.20
2023-01-23T04:00:31.405Z,1.20
2023-01-23T04:03:03.085Z,1.20
2023-01-23T04:05:29.872Z,1.20
2023-01-23T04:07:56.678Z,1.20
2023-01-23T04:10:23.635Z,1.20
2023-01-23T04:12:54.584Z,1.20
2023-01-23T04:15:21.560Z,1.20
2023-01-23T04:17:49.939Z,1.20
2023-01-23T04:20:16.917Z,1.20
2023-01-23T04:22:43.976Z,1.10
2023-01-23T04:25:10.703Z,1.10
2023-01-23T04:27:37.394Z,1.10
2023-01-23T04:30:05.139Z,1.10
2023-01-23T04:32:34.375Z,1.10
2023-01-23T04:35:01.147Z,1.20
2023-01-23T04:37:28.020Z,1.20
2023-01-23T04:39:55.519Z,1.10
2023-01-23T04:42:23.093Z,1.10
2023-01-23T04:45:02.422Z,1.20
2023-01-23T04:47:50.927Z,1.20
2023-01-23T04:50:18.099Z,1.20
2023-01-23T04:52:46.271Z,1.20
2023-01-23T04:55:13.470Z,1.20
2023-01-23T04:57:42.985Z,1.20
2023-01-23T05:00:21.029Z,1.30
2023-01-23T05:02:52.611Z,1.40
2023-01-23T05:05:21.164Z,1.30
2023-01-23T05:07:50.356Z,1.30
2023-01-23T05:10:17.832Z,1.30
2023-01-23T05:12:44.674Z,1.20
2023-01-23T05:15:11.784Z,1.20
2023-01-23T05:17:40.870Z,1.30
2023-01-23T05:20:08.378Z,1.30
2023-01-23T05:22:37.479Z,1.20
2023-01-23T05:25:04.607Z,1.20
2023-01-23T05:27:31.374Z,1.20
2023-01-23T05:29:59.495Z,1.20
2023-01-23T05:32:29.559Z,1.20
2023-01-23T05:35:04.347Z,1.20
2023-01-23T05:37:31.035Z,1.20
2023-01-23T05:40:03.140Z,1.20
2023-01-23T05:42:49.901Z,1.20
2023-01-23T05:45:35.210Z,1.20
2023-01-23T05:48:05.672Z,1.20
2023-01-23T05:50:34.412Z,1.20
2023-01-23T05:53:01.292Z,1.20
2023-01-23T05:55:28.364Z,1.20
2023-01-23T05:57:55.980Z,1.20
2023-01-23T06:00:45.286Z,1.20
2023-01-23T06:03:32.420Z,1.20
2023-01-23T06:06:37.635Z,1.20
2023-01-23T06:09:04.312Z,1.20
2023-01-23T06:11:31.617Z,1.20
2023-01-23T06:13:58.318Z,1.20
2023-01-23T06:16:25.190Z,1.20
2023-01-23T06:18:52.106Z,1.20
2023-01-23T06:21:19.251Z,1.20
2023-01-23T06:23:46.262Z,1.20
2023-01-23T06:26:13.543Z,1.20
2023-01-23T06:28:40.389Z,1.20
2023-01-23T06:31:10.183Z,1.20
2023-01-23T06:33:52.264Z,1.20
2023-01-23T06:36:22.280Z,1.20
2023-01-23T06:38:49.304Z,1.20
2023-01-23T06:41:18.293Z,1.20
2023-01-23T06:43:51.001Z,1.20
2023-01-23T06:46:22.348Z,1.20
2023-01-23T06:48:49.184Z,1.20
2023-01-23T06:51:16.123Z,1.20
2023-01-23T06:53:44.556Z,1.20
2023-01-23T06:56:11.559Z,1.20
2023-01-23T06:58:41.168Z,1.10
2023-01-23T07:01:17.161Z,1.20
2023-01-23T07:04:14.235Z,1.20
2023-01-23T07:06:42.635Z,1.10
2023-01-23T07:09:10.415Z,1.20
2023-01-23T07:11:37.822Z,1.20
2023-01-23T07:14:06.084Z,1.20
2023-01-23T07:16:35.840Z,1.20
2023-01-23T07:19:04.020Z,1.20
2023-01-23T07:21:32.651Z,1.20
2023-01-23T07:23:59.456Z,1.10
2023-01-23T07:26:26.203Z,1.20
2023-01-23T07:28:52.943Z,1.10
2023-01-23T07:31:19.839Z,1.10
2023-01-23T07:33:47.248Z,1.20
2023-01-23T07:36:14.686Z,1.10
2023-01-23T07:38:41.442Z,1.10
2023-01-23T07:41:08.187Z,1.20
2023-01-23T07:43:34.879Z,1.20
2023-01-23T07:46:01.768Z,1.20
2023-01-23T07:48:29.341Z,1.20
2023-01-23T07:50:56.134Z,1.20
2023-01-23T07:53:22.931Z,1.10
2023-01-23T07:55:49.658Z,1.20
2023-01-23T07:58:16.356Z,1.10
2023-01-23T08:00:43.091Z,1.20
2023-01-23T08:03:09.895Z,1.20
2023-01-23T08:05:36.655Z,1.20
2023-01-23T08:08:13.061Z,1.10
2023-01-23T08:10:41.131Z,1.20
2023-01-23T08:13:07.917Z,1.20
2023-01-23T08:15:34.650Z,1.10
2023-01-23T08:18:01.321Z,1.20
2023-01-23T08:20:27.992Z,1.20
2023-01-23T08:22:55.608Z,1.10
2023-01-23T08:25:22.352Z,1.20
2023-01-23T08:27:49.042Z,1.20
2023-01-23T08:30:16.132Z,1.20
2023-01-23T08:32:42.826Z,1.20
2023-01-23T08:35:09.857Z,1.20
2023-01-23T08:37:36.923Z,1.20
2023-01-23T08:40:04.550Z,1.20
2023-01-23T08:42:31.329Z,1.20
2023-01-23T08:44:58.016Z,1.20
2023-01-23T08:47:24.806Z,1.30
2023-01-23T08:49:51.551Z,1.30
2023-01-23T08:52:18.249Z,1.30
2023-01-23T08:54:45.099Z,1.30
2023-01-23T08:57:11.785Z,1.30
2023-01-23T08:59:38.477Z,1.30
2023-01-23T09:02:05.249Z,1.30
2023-01-23T09:04:31.954Z,1.40
2023-01-23T09:06:58.661Z,1.40
2023-01-23T09:09:25.335Z,1.40
2023-01-23T09:11:52.082Z,1.40
2023-01-23T09:14:18.783Z,1.40
2023-01-23T09:16:45.691Z,1.40
2023-01-23T09:19:12.714Z,1.50
2023-01-23T09:21:39.840Z,1.40
2023-01-23T09:24:06.736Z,1.50
2023-01-23T09:26:33.456Z,1.50
2023-01-23T09:29:00.118Z,1.50
2023-01-23T09:31:26.933Z,1.50
2023-01-23T09:33:53.648Z,1.60
2023-01-23T09:36:27.487Z,1.60
2023-01-23T09:39:00.625Z,1.60
2023-01-23T09:41:28.028Z,1.50
2023-01-23T09:43:59.293Z,1.60
2023-01-23T09:46:41.882Z,1.50
2023-01-23T09:49:47.388Z,1.60
2023-01-23T09:52:21.926Z,1.60
2023-01-23T09:54:50.174Z,1.60
2023-01-23T09:57:25.729Z,1.60
2023-01-23T10:00:20.056Z,1.60
2023-01-23T10:02:47.144Z,1.60
2023-01-23T10:05:15.608Z,1.60
2023-01-23T10:07:59.937Z,1.60
2023-01-23T10:10:51.279Z,1.60
2023-01-23T10:13:48.555Z,1.60
2023-01-23T10:16:19.184Z,1.60
2023-01-23T10:19:20.765Z,1.60
2023-01-23T10:21:53.865Z,1.60
2023-01-23T10:24:24.721Z,1.60
2023-01-23T10:26:51.464Z,1.60
2023-01-23T10:29:26.332Z,1.60
2023-01-23T10:31:57.281Z,1.60
2023-01-23T10:34:34.750Z,1.60
2023-01-23T10:37:14.860Z,1.60
2023-01-23T10:39:51.048Z,1.60
2023-01-23T10:42:24.215Z,1.60
2023-01-23T10:44:51.133Z,1.60
2023-01-23T10:47:42.874Z,1.60
2023-01-23T10:50:10.287Z,1.60
2023-01-23T10:52:38.552Z,1.60
2023-01-23T10:55:10.719Z,1.70
2023-01-23T10:57:48.783Z,1.70
2023-01-23T11:00:27.541Z,1.80
2023-01-23T11:02:54.344Z,1.80
2023-01-23T11:05:52.988Z,1.80
2023-01-23T11:08:30.003Z,1.80
2023-01-23T11:11:15.354Z,1.80
2023-01-23T11:13:43.180Z,1.90
2023-01-23T11:16:21.553Z,1.90
2023-01-23T11:18:56.192Z,1.80
2023-01-23T11:21:24.521Z,1.80
2023-01-23T11:24:15.235Z,1.80
2023-01-23T11:26:41.943Z,1.90
2023-01-23T11:29:22.481Z,1.80
2023-01-23T11:32:11.313Z,1.90
2023-01-23T11:34:44.174Z,1.90
2023-01-23T11:37:36.127Z,1.90
2023-01-23T11:40:21.051Z,2.00
2023-01-23T11:42:48.013Z,2.00
2023-01-23T11:45:44.915Z,2.00
2023-01-23T11:48:11.718Z,2.00
2023-01-23T11:50:55.026Z,2.10
2023-01-23T11:53:42.314Z,2.10
2023-01-23T11:56:34.327Z,2.10
2023-01-23T11:59:12.248Z,2.20
2023-01-23T12:02:03.834Z,2.30
2023-01-23T12:04:52.372Z,2.30
2023-01-23T12:07:23.608Z,2.20
2023-01-23T12:10:18.422Z,2.20
2023-01-23T12:12:51.695Z,2.30
2023-01-23T12:15:23.084Z,2.30
2023-01-23T12:18:15.020Z,2.20
2023-01-23T12:20:51.457Z,2.30
2023-01-23T12:23:58.907Z,2.30
2023-01-23T12:26:26.384Z,2.30
2023-01-23T12:29:02.048Z,2.30
2023-01-23T12:31:38.138Z,2.30
2023-01-23T12:34:20.202Z,2.20
2023-01-23T12:37:19.321Z,2.20
2023-01-23T12:40:09.938Z,2.30
2023-01-23T12:42:54.070Z,2.30
2023-01-23T12:45:27.912Z,2.30
2023-01-23T12:48:03.552Z,2.30
2023-01-23T12:50:45.949Z,2.30
2023-01-23T12:53:16.730Z,2.30
2023-01-23T12:56:06.434Z,2.40
2023-01-23T12:58:35.617Z,2.40
2023-01-23T13:01:33.019Z,2.40
2023-01-23T13:04:09.545Z,2.40
2023-01-23T13:06:57.278Z,2.40
2023-01-23T13:09:50.335Z,2.40
2023-01-23T13:12:29.663Z,2.40
2023-01-23T13:15:22.553Z,2.40
2023-01-23T13:17:57.959Z,2.30
2023-01-23T13:20:51.117Z,2.30
2023-01-23T13:23:25.581Z,2.30
2023-01-23T13:26:11.315Z,2.30
2023-01-23T13:28:53.946Z,2.40
2023-01-23T13:31:47.164Z,2.30
2023-01-23T13:34:17.398Z,2.30
2023-01-23T13:36:45.191Z,2.40
2023-01-23T13:39:17.846Z,2.30
2023-01-23T13:41:45.740Z,2.30
2023-01-23T13:44:41.609Z,2.30
2023-01-23T14:21:46.294Z,2.20
2023-01-23T14:24:31.005Z,2.20
2023-01-23T14:27:07.448Z,2.20
2023-01-23T14:29:34.553Z,2.20
2023-01-23T14:32:01.331Z,2.20
2023-01-23T14:34:28.167Z,2.20
2023-01-23T14:37:02.521Z,2.20
2023-01-23T14:39:30.358Z,2.20
2023-01-23T14:42:02.040Z,2.20
2023-01-23T14:44:42.393Z,2.20
2023-01-23T14:47:16.329Z,2.10
2023-01-23T14:49:43.015Z,2.10
2023-01-23T14:52:22.010Z,2.10
2023-01-23T14:54:54.121Z,2.10
2023-01-23T14:57:24.580Z,2.20
2023-01-23T14:59:52.650Z,2.20
2023-01-23T15:02:31.000Z,2.20
2023-01-23T15:05:13.095Z,2.10
2023-01-23T15:08:00.237Z,2.10
2023-01-23T15:10:32.489Z,2.10
2023-01-23T15:13:03.285Z,2.00
2023-01-23T15:15:30.867Z,2.00
2023-01-23T15:17:59.370Z,2.00
2023-01-23T15:24:53.324Z,2.00
2023-01-23T15:27:27.068Z,1.90
2023-01-23T15:30:37.302Z,1.90
2023-01-23T15:33:19.033Z,1.90
2023-01-23T15:41:51.609Z,1.90
2023-01-23T15:44:19.922Z,1.90
2023-01-23T15:46:47.306Z,1.90
2023-01-23T15:49:24.833Z,1.90
2023-01-23T15:51:52.912Z,1.90
2023-01-23T15:54:28.974Z,1.80
2023-01-23T15:57:06.445Z,1.90
2023-01-23T15:59:34.284Z,1.90
2023-01-23T16:02:01.046Z,1.90
2023-01-23T16:04:27.771Z,1.80
2023-01-23T16:06:54.461Z,1.80
2023-01-23T16:09:24.451Z,1.80
2023-01-23T16:11:51.563Z,1.80
2023-01-23T16:14:18.646Z,1.80
2023-01-23T16:16:45.500Z,1.80
2023-01-23T16:19:15.198Z,1.80
2023-01-23T16:21:45.809Z,1.80
2023-01-23T16:24:21.695Z,1.80
2023-01-23T16:26:56.305Z,1.80
2023-01-23T16:29:28.423Z,1.80
2023-01-23T16:31:55.656Z,1.80
2023-01-23T16:34:22.426Z,1.80
2023-01-23T16:36:50.039Z,1.80
2023-01-23T16:39:21.602Z,1.80
2023-01-23T16:41:49.001Z,1.80
2023-01-23T16:44:18.245Z,1.80
2023-01-23T16:46:45.843Z,1.80
2023-01-23T16:49:13.179Z,1.80
2023-01-23T16:51:48.383Z,1.80
2023-01-23T16:54:18.786Z,1.80
2023-01-23T16:56:47.809Z,1.70
2023-01-23T16:59:29.724Z,1.70
2023-01-23T17:01:56.459Z,1.80
2023-01-23T17:04:23.204Z,1.80
2023-01-23T17:06:50.166Z,1.70
2023-01-23T17:09:17.436Z,1.80
2023-01-23T17:11:46.442Z,1.80
2023-01-23T17:14:20.703Z,1.80
2023-01-23T17:16:47.483Z,1.80
2023-01-23T17:19:28.059Z,1.80
2023-01-23T17:21:54.900Z,1.80
2023-01-23T17:24:21.722Z,1.80
2023-01-23T17:26:48.425Z,1.80
2023-01-23T17:29:15.367Z,1.80
2023-01-23T17:31:42.182Z,1.80
2023-01-23T17:34:20.392Z,1.80
2023-01-23T17:36:47.140Z,1.80
2023-01-23T17:39:13.835Z,1.80
2023-01-23T17:41:40.517Z,1.80
2023-01-23T17:44:07.238Z,1.80
2023-01-23T17:46:37.582Z,1.80
2023-01-23T17:49:05.137Z,1.80
2023-01-23T17:51:33.574Z,1.80
2023-01-23T17:54:00.335Z,1.80
2023-01-23T17:56:27.093Z,1.70
2023-01-23T17:58:53.848Z,1.70
2023-01-23T18:01:24.580Z,1.70
2023-01-23T18:03:51.698Z,1.80
2023-01-23T18:06:20.226Z,1.70
2023-01-23T18:08:47.348Z,1.70
2023-01-23T18:11:23.099Z,1.70
2023-01-23T18:13:59.773Z,1.70
2023-01-23T18:16:32.832Z,1.70
2023-01-23T18:19:05.397Z,1.70
2023-01-23T18:21:33.703Z,1.70
2023-01-23T18:24:01.866Z,1.70
2023-01-23T18:26:42.251Z,1.70
2023-01-23T18:29:13.098Z,1.70
2023-01-23T18:32:05.723Z,1.70
2023-01-23T18:35:04.213Z,1.70
2023-01-23T18:37:41.250Z,1.70
2023-01-23T18:40:18.203Z,1.70
2023-01-23T18:42:49.554Z,1.80
2023-01-23T18:45:26.956Z,1.80
2023-01-23T18:47:57.073Z,1.70
2023-01-23T18:50:26.922Z,1.70
2023-01-23T18:53:06.032Z,1.80
2023-01-23T18:55:53.543Z,1.80
2023-01-23T18:59:11.997Z,1.80
2023-01-23T19:01:55.398Z,1.80
2023-01-23T19:04:34.342Z,1.80
2023-01-23T19:07:03.706Z,1.80
2023-01-23T19:09:33.339Z,1.70
2023-01-23T19:12:25.292Z,1.70
2023-01-23T19:15:01.511Z,1.70
2023-01-23T19:17:47.322Z,1.80
2023-01-23T19:20:32.615Z,1.70
2023-01-23T19:23:38.727Z,1.80
2023-01-23T19:26:11.827Z,1.70
2023-01-23T19:28:40.669Z,1.70
2023-01-23T19:31:27.097Z,1.70
2023-01-23T19:33:54.402Z,1.70
2023-01-23T19:36:21.913Z,1.70
2023-01-23T19:38:48.794Z,1.70
2023-01-23T19:41:23.880Z,1.70
2023-01-23T19:43:55.439Z,1.70
2023-01-23T19:46:25.269Z,1.70
2023-01-23T19:48:52.007Z,1.70
2023-01-23T19:51:19.492Z,1.70
2023-01-23T19:53:46.195Z,1.70
2023-01-23T19:56:13.972Z,1.70
2023-01-23T19:58:41.494Z,1.70
2023-01-23T20:01:48.551Z,1.70
2023-01-23T20:04:20.849Z,1.70
2023-01-23T20:06:49.058Z,1.70
2023-01-23T20:10:32.056Z,1.70
2023-01-23T20:13:42.474Z,1.70
2023-01-23T20:16:29.567Z,1.70
2023-01-23T20:18:56.363Z,1.70
2023-01-23T20:21:24.117Z,1.70
2023-01-23T20:23:51.302Z,1.70
2023-01-23T20:26:18.963Z,1.70
2023-01-23T20:28:49.697Z,1.70
2023-01-23T20:31:16.736Z,1.70
2023-01-23T20:33:43.999Z,1.70
2023-01-23T20:36:11.109Z,1.70
2023-01-23T20:38:38.769Z,1.70
2023-01-23T20:41:07.097Z,1.70
2023-01-23T20:43:34.232Z,1.70
2023-01-23T20:46:01.023Z,1.70
2023-01-23T20:48:28.058Z,1.70
2023-01-23T20:50:56.142Z,1.70
2023-01-23T20:53:32.174Z,1.60
2023-01-23T20:56:07.981Z,1.60
2023-01-23T20:58:54.192Z,1.60
2023-01-23T21:01:21.992Z,1.60
2023-01-23T21:03:50.239Z,1.60
2023-01-23T21:06:17.510Z,1.60
2023-01-23T21:08:44.491Z,1.60
2023-01-23T21:11:18.640Z,1.60
2023-01-23T21:13:50.133Z,1.60
2023-01-23T21:16:16.987Z,1.60
2023-01-23T21:18:46.027Z,1.70
2023-01-23T21:21:19.842Z,1.70
2023-01-23T21:23:48.860Z,1.60
2023-01-23T21:26:16.531Z,1.60
2023-01-23T21:28:43.250Z,1.60
2023-01-23T21:31:29.515Z,1.60
2023-01-23T21:33:58.387Z,1.60
2023-01-23T21:36:25.329Z,1.60
2023-01-23T21:38:52.336Z,1.60
2023-01-23T21:41:19.206Z,1.60
2023-01-23T21:43:46.032Z,1.60
2023-01-23T21:46:12.998Z,1.50
2023-01-23T21:48:39.752Z,1.60
2023-01-23T21:51:07.624Z,1.60
2023-01-23T21:53:35.568Z,1.60
2023-01-23T21:56:02.268Z,1.60
2023-01-23T21:58:28.921Z,1.60
2023-01-23T22:01:17.767Z,1.60
2023-01-23T22:03:44.588Z,1.50
2023-01-23T22:06:11.352Z,1.60
2023-01-23T22:08:38.191Z,1.50
2023-01-23T22:11:05.515Z,1.50
2023-01-23T22:13:32.311Z,1.50
2023-01-23T22:15:59.279Z,1.50
2023-01-23T22:18:26.087Z,1.60
2023-01-23T22:21:00.117Z,1.50
2023-01-23T22:23:26.923Z,1.50
2023-01-23T22:25:56.058Z,1.50
2023-01-23T22:28:22.892Z,1.50
2023-01-23T22:30:49.644Z,1.50
2023-01-23T22:33:16.648Z,1.50
2023-01-23T22:35:43.506Z,1.60
2023-01-23T22:38:12.061Z,1.50
2023-01-23T22:40:38.860Z,1.50
2023-01-23T22:43:06.159Z,1.50
2023-01-23T22:45:32.859Z,1.50
2023-01-23T22:47:59.553Z,1.50
2023-01-23T22:50:27.214Z,1.50
2023-01-23T22:52:53.927Z,1.50
2023-01-23T22:55:21.008Z,1.50
2023-01-23T22:57:47.909Z,1.50
2023-01-23T23:00:15.554Z,1.50
2023-01-23T23:02:42.299Z,1.50
2023-01-23T23:05:09.314Z,1.50
2023-01-23T23:07:36.451Z,1.60
2023-01-23T23:10:07.397Z,1.60
2023-01-23T23:12:34.085Z,1.50
2023-01-23T23:15:00.818Z,1.50
2023-01-23T23:17:28.889Z,1.50
2023-01-23T23:19:55.625Z,1.60
2023-01-23T23:22:22.301Z,1.50
2023-01-23T23:24:49.085Z,1.60
2023-01-23T23:27:15.779Z,1.60
2023-01-23T23:29:42.457Z,1.60
2023-01-23T23:32:09.244Z,1.60
2023-01-23T23:34:37.138Z,1.60
2023-01-23T23:37:04.076Z,1.60
2023-01-23T23:39:30.775Z,1.60
2023-01-23T23:41:58.445Z,1.60
2023-01-23T23:44:25.191Z,1.60
2023-01-23T23:46:51.931Z,1.60
2023-01-23T23:49:18.617Z,1.60
2023-01-23T23:51:45.392Z,1.60
2023-01-23T23:54:12.094Z,1.60
2023-01-23T23:56:38.777Z,1.60
2023-01-23T23:59:05.555Z,1.60
